Time;durP1;ratioP1;P1;durP2;ratioP2;P2;SDS_P1;SDS_P2;PMS_P1;PMS_P2;Temp;Humidity;BMP_temperature;BMP_pressure;BME280_temperature;BME280_humidity;BME280_pressure;Samples;Min_cycle;Max_cycle;Signal;HPM_P1;HPM_P2
2022/12/08 00:01:09;;;;;;;2.38;2.17;;;;;;;;;;5064061;28;20221;-88
2022/12/08 00:03:37;;;;;;;2.97;2.60;;;;;;;;;;5064272;28;20280;-87
2022/12/08 00:11:38;;;;;;;3.42;2.80;;;;;;;;;;5062284;28;20291;-87
2022/12/08 00:14:06;;;;;;;2.58;2.38;;;;;;;;;;5063748;28;20224;-87
2022/12/08 00:16:33;;;;;;;2.53;2.33;;;;;;;;;;5064690;28;20201;-87
2022/12/08 00:19:01;;;;;;;3.55;3.25;;;;;;;;;;5064098;28;20267;-87
2022/12/08 00:21:29;;;;;;;4.13;3.45;;;;;;;;;;5063563;28;20251;-87
2022/12/08 00:23:58;;;;;;;2.92;2.72;;;;;;;;;;5063960;28;20236;-87
2022/12/08 00:26:26;;;;;;;3.10;2.25;;;;;;;;;;5063235;28;20289;-88
2022/12/08 00:28:53;;;;;;;2.40;2.20;;;;;;;;;;5063727;28;20202;-87
2022/12/08 00:31:21;;;;;;;2.28;2.08;;;;;;;;;;5063347;28;20348;-87
2022/12/08 00:33:48;;;;;;;2.85;2.58;;;;;;;;;;5063788;28;20205;-87
2022/12/08 00:36:16;;;;;;;2.10;2.00;;;;;;;;;;5062590;28;20266;-88
2022/12/08 00:38:46;;;;;;;3.35;2.42;;;;;;;;;;5067417;28;20708;-88
2022/12/08 00:41:17;;;;;;;4.75;2.45;;;;;;;;;;5081396;28;20201;-86
2022/12/08 00:43:44;;;;;;;2.70;2.50;;;;;;;;;;5081361;28;20181;-86
2022/12/08 00:46:12;;;;;;;2.35;2.10;;;;;;;;;;5080574;28;20694;-84
2022/12/08 00:48:40;;;;;;;2.20;2.10;;;;;;;;;;5079906;28;20228;-86
2022/12/08 00:51:07;;;;;;;3.67;2.70;;;;;;;;;;5079755;28;20239;-86
2022/12/08 00:53:35;;;;;;;3.50;3.17;;;;;;;;;;5080090;28;20288;-84
2022/12/08 00:56:02;;;;;;;4.82;4.28;;;;;;;;;;5080131;28;20727;-85
2022/12/08 00:58:31;;;;;;;2.70;2.50;;;;;;;;;;5079656;28;20236;-86
2022/12/08 01:00:58;;;;;;;2.88;2.67;;;;;;;;;;5079566;28;20293;-86
2022/12/08 01:03:26;;;;;;;3.33;2.90;;;;;;;;;;5079854;28;20283;-85
2022/12/08 01:05:53;;;;;;;3.40;3.10;;;;;;;;;;5079627;28;20270;-85
2022/12/08 01:08:21;;;;;;;3.55;3.22;;;;;;;;;;5079523;28;20679;-85
2022/12/08 01:10:48;;;;;;;2.58;2.38;;;;;;;;;;5081320;28;20266;-86
2022/12/08 01:13:16;;;;;;;2.63;2.42;;;;;;;;;;5084724;28;20215;-85
2022/12/08 01:15:45;;;;;;;3.35;3.05;;;;;;;;;;5083791;28;20280;-86
2022/12/08 01:18:12;;;;;;;4.20;3.10;;;;;;;;;;5083803;28;20203;-85
2022/12/08 01:20:40;;;;;;;3.38;2.97;;;;;;;;;;5083659;28;20229;-84
2022/12/08 01:23:07;;;;;;;2.70;2.50;;;;;;;;;;5083528;28;20743;-85
2022/12/08 01:25:35;;;;;;;3.00;2.70;;;;;;;;;;5082929;28;20719;-85
2022/12/08 01:28:03;;;;;;;4.28;3.88;;;;;;;;;;5082667;28;20201;-84
2022/12/08 01:30:30;;;;;;;2.75;2.55;;;;;;;;;;5084240;28;20285;-84
2022/12/08 01:32:59;;;;;;;4.43;3.08;;;;;;;;;;5083348;28;20231;-84
2022/12/08 01:35:27;;;;;;;3.30;3.03;;;;;;;;;;5081960;28;20221;-88
2022/12/08 01:37:54;;;;;;;3.88;3.47;;;;;;;;;;5082422;28;20207;-86
2022/12/08 01:40:22;;;;;;;2.72;2.53;;;;;;;;;;5081922;28;20221;-86
2022/12/08 01:42:51;;;;;;;3.15;2.70;;;;;;;;;;5081569;28;20228;-86
2022/12/08 01:45:23;;;;;;;2.45;2.22;;;;;;;;;;5082863;28;20224;-86
2022/12/08 01:47:54;;;;;;;2.55;2.35;;;;;;;;;;5083051;28;20205;-85
2022/12/08 01:50:23;;;;;;;6.22;3.08;;;;;;;;;;5082618;28;20693;-85
2022/12/08 01:52:55;;;;;;;2.65;2.45;;;;;;;;;;5082113;28;20646;-85
2022/12/08 01:55:26;;;;;;;2.30;2.10;;;;;;;;;;5081547;28;20205;-84
2022/12/08 01:57:58;;;;;;;2.25;2.13;;;;;;;;;;5081707;28;20185;-86
2022/12/08 02:00:26;;;;;;;2.75;2.55;;;;;;;;;;5082768;28;20244;-85
2022/12/08 02:02:57;;;;;;;2.65;2.28;;;;;;;;;;5082552;28;20224;-85
2022/12/08 02:05:29;;;;;;;2.67;2.47;;;;;;;;;;5081599;28;20252;-86
2022/12/08 02:07:58;;;;;;;2.20;2.00;;;;;;;;;;5083023;28;20232;-85
2022/12/08 02:10:30;;;;;;;2.47;2.28;;;;;;;;;;5064954;28;20260;-85
2022/12/08 02:12:59;;;;;;;2.40;2.20;;;;;;;;;;5062769;28;20229;-86
2022/12/08 02:15:36;;;;;;;2.60;2.40;;;;;;;;;;5063098;28;20288;-86
2022/12/08 02:18:17;;;;;;;2.80;2.60;;;;;;;;;;5062029;28;20240;-87
2022/12/08 02:20:56;;;;;;;3.28;2.53;;;;;;;;;;5061105;28;20274;-86
2022/12/08 02:23:31;;;;;;;3.03;2.05;;;;;;;;;;5061371;28;20193;-86
2022/12/08 02:26:30;;;;;;;2.30;2.10;;;;;;;;;;5061284;28;20225;-84
2022/12/08 02:29:42;;;;;;;2.95;2.75;;;;;;;;;;5060266;28;20213;-85
2022/12/08 02:32:39;;;;;;;2.38;2.17;;;;;;;;;;5024244;28;20266;-83
2022/12/08 02:35:13;;;;;;;2.55;2.35;;;;;;;;;;5060812;28;20253;-84
2022/12/08 02:37:47;;;;;;;2.30;2.10;;;;;;;;;;5060597;28;20224;-84
2022/12/08 02:40:20;;;;;;;2.75;2.47;;;;;;;;;;5077561;28;20228;-83
2022/12/08 02:42:51;;;;;;;3.33;3.03;;;;;;;;;;5080155;28;20232;-84
2022/12/08 02:45:25;;;;;;;3.28;2.97;;;;;;;;;;5080801;28;20186;-84
2022/12/08 02:47:53;;;;;;;2.65;2.45;;;;;;;;;;5080436;28;20287;-85
2022/12/08 02:50:22;;;;;;;3.25;2.97;;;;;;;;;;5081167;28;20285;-85
2022/12/08 02:52:50;;;;;;;3.97;3.58;;;;;;;;;;5079771;28;20233;-83
2022/12/08 02:55:26;;;;;;;3.72;3.42;;;;;;;;;;5078662;28;20585;-87
2022/12/08 02:58:38;;;;;;;3.08;2.78;;;;;;;;;;5079378;28;20329;-86
2022/12/08 03:01:29;;;;;;;4.22;3.30;;;;;;;;;;5081621;28;20220;-85
2022/12/08 03:04:06;;;;;;;2.22;2.08;;;;;;;;;;5080462;28;20279;-85
2022/12/08 03:06:39;;;;;;;2.85;2.60;;;;;;;;;;5079130;28;20220;-86
2022/12/08 03:09:13;;;;;;;2.35;2.15;;;;;;;;;;5080381;28;20232;-85
2022/12/08 03:11:46;;;;;;;3.10;2.80;;;;;;;;;;5080298;28;20258;-85
2022/12/08 03:14:17;;;;;;;2.72;2.53;;;;;;;;;;5080504;28;20459;-85
2022/12/08 03:16:49;;;;;;;4.45;3.08;;;;;;;;;;5080164;28;20195;-85
2022/12/08 03:19:19;;;;;;;2.60;2.33;;;;;;;;;;5080138;28;20220;-86
2022/12/08 03:21:53;;;;;;;4.82;3.50;;;;;;;;;;5073461;22;20712;-85
2022/12/08 03:24:23;;;;;;;3.20;2.90;;;;;;;;;;5059946;28;20284;-83
2022/12/08 03:26:55;;;;;;;3.15;2.85;;;;;;;;;;5060208;28;20272;-83
2022/12/08 03:29:23;;;;;;;3.25;2.40;;;;;;;;;;5059643;28;20197;-84
2022/12/08 03:31:56;;;;;;;6.75;3.72;;;;;;;;;;5055298;28;20253;-83
2022/12/08 03:34:27;;;;;;;3.33;3.03;;;;;;;;;;5054516;28;20292;-84
2022/12/08 03:36:56;;;;;;;3.00;2.80;;;;;;;;;;5055846;28;20273;-84
2022/12/08 03:39:24;;;;;;;3.50;3.20;;;;;;;;;;5065448;28;20291;-84
2022/12/08 03:41:51;;;;;;;2.70;2.50;;;;;;;;;;5075464;28;20312;-84
2022/12/08 03:44:19;;;;;;;2.65;2.45;;;;;;;;;;5075379;28;20321;-85
2022/12/08 03:46:46;;;;;;;2.55;2.35;;;;;;;;;;5075340;28;20220;-84
2022/12/08 03:49:14;;;;;;;2.67;2.47;;;;;;;;;;5076084;28;20287;-84
2022/12/08 03:51:41;;;;;;;4.13;2.78;;;;;;;;;;5075009;28;20227;-84
2022/12/08 03:54:10;;;;;;;4.05;3.65;;;;;;;;;;5075304;28;20283;-84
2022/12/08 03:56:39;;;;;;;3.30;2.97;;;;;;;;;;5075418;28;20246;-85
2022/12/08 03:59:07;;;;;;;4.03;3.65;;;;;;;;;;5074905;28;20288;-83
2022/12/08 04:01:35;;;;;;;5.32;4.78;;;;;;;;;;5075189;28;20271;-83
2022/12/08 04:04:03;;;;;;;5.18;3.92;;;;;;;;;;5075070;28;20259;-83
2022/12/08 04:06:30;;;;;;;3.50;3.17;;;;;;;;;;5075349;28;20311;-84
2022/12/08 04:08:58;;;;;;;5.40;4.40;;;;;;;;;;5061291;28;20282;-84
2022/12/08 04:11:26;;;;;;;3.97;3.67;;;;;;;;;;5055781;28;20308;-83
2022/12/08 04:13:54;;;;;;;3.60;3.30;;;;;;;;;;5055661;28;20662;-83
2022/12/08 04:16:24;;;;;;;4.60;3.47;;;;;;;;;;5055838;28;20201;-84
2022/12/08 04:18:52;;;;;;;3.88;3.42;;;;;;;;;;5054616;28;20576;-82
2022/12/08 04:21:20;;;;;;;4.80;3.72;;;;;;;;;;5054338;28;20315;-84
2022/12/08 04:23:48;;;;;;;4.20;3.67;;;;;;;;;;5054503;28;20274;-84
2022/12/08 04:26:17;;;;;;;3.60;3.30;;;;;;;;;;5054010;28;20289;-85
2022/12/08 04:28:46;;;;;;;4.20;3.80;;;;;;;;;;5054475;28;20631;-85
2022/12/08 04:31:13;;;;;;;4.38;3.97;;;;;;;;;;5054586;28;20257;-84
2022/12/08 04:33:41;;;;;;;5.55;3.83;;;;;;;;;;5054165;28;20288;-84
2022/12/08 04:36:09;;;;;;;3.47;3.17;;;;;;;;;;5053920;28;20296;-84
2022/12/08 04:38:37;;;;;;;3.20;2.97;;;;;;;;;;5053282;28;20287;-84
2022/12/08 04:41:05;;;;;;;7.18;5.32;;;;;;;;;;5054184;28;20267;-85
2022/12/08 04:43:32;;;;;;;3.75;3.42;;;;;;;;;;5053764;28;20292;-84
2022/12/08 04:46:01;;;;;;;5.45;3.58;;;;;;;;;;5054017;28;20736;-83
2022/12/08 04:48:28;;;;;;;3.63;3.33;;;;;;;;;;5053461;28;20312;-84
2022/12/08 04:50:56;;;;;;;3.70;3.38;;;;;;;;;;5054164;28;20253;-84
2022/12/08 04:53:25;;;;;;;3.03;2.83;;;;;;;;;;5054008;28;20233;-85
2022/12/08 04:55:53;;;;;;;4.97;3.60;;;;;;;;;;5053915;28;20673;-85
2022/12/08 04:58:21;;;;;;;7.88;3.40;;;;;;;;;;5053439;28;20236;-83
2022/12/08 05:00:49;;;;;;;3.13;2.85;;;;;;;;;;5053650;28;20249;-83
2022/12/08 05:03:18;;;;;;;2.97;2.78;;;;;;;;;;5053472;28;20269;-83
2022/12/08 05:05:46;;;;;;;2.97;2.72;;;;;;;;;;5053973;28;20723;-83
2022/12/08 05:08:13;;;;;;;3.25;3.00;;;;;;;;;;5053515;28;20217;-83
2022/12/08 05:10:41;;;;;;;2.75;2.55;;;;;;;;;;5073641;28;20223;-83
2022/12/08 05:13:08;;;;;;;3.42;2.80;;;;;;;;;;5073443;28;20244;-82
2022/12/08 05:15:36;;;;;;;3.10;2.80;;;;;;;;;;5073556;28;20197;-84
2022/12/08 05:18:06;;;;;;;6.25;4.97;;;;;;;;;;5072896;28;20232;-82
2022/12/08 05:20:35;;;;;;;3.63;3.33;;;;;;;;;;5073351;28;20233;-84
2022/12/08 05:23:02;;;;;;;4.18;3.78;;;;;;;;;;5073749;28;20669;-83
2022/12/08 05:25:30;;;;;;;3.60;3.30;;;;;;;;;;5073294;28;20295;-84
2022/12/08 05:27:58;;;;;;;4.50;3.55;;;;;;;;;;5073434;28;20599;-83
2022/12/08 05:30:25;;;;;;;4.13;3.72;;;;;;;;;;5073240;28;20197;-83
2022/12/08 05:32:53;;;;;;;3.63;3.33;;;;;;;;;;5073584;28;20637;-84
2022/12/08 05:35:20;;;;;;;3.35;3.08;;;;;;;;;;5073163;28;20233;-83
2022/12/08 05:37:50;;;;;;;3.50;3.20;;;;;;;;;;5073214;28;20288;-83
2022/12/08 05:40:18;;;;;;;4.03;3.53;;;;;;;;;;5055387;28;20618;-84
2022/12/08 05:42:46;;;;;;;5.68;5.13;;;;;;;;;;5053711;28;20641;-84
2022/12/08 05:45:13;;;;;;;4.03;3.72;;;;;;;;;;5053425;28;20233;-84
2022/12/08 05:47:41;;;;;;;4.20;3.80;;;;;;;;;;5053611;28;20228;-83
2022/12/08 05:50:09;;;;;;;5.10;4.30;;;;;;;;;;5053465;28;20264;-85
2022/12/08 05:52:37;;;;;;;3.63;3.33;;;;;;;;;;5053999;28;20206;-84
2022/12/08 05:55:06;;;;;;;4.55;4.15;;;;;;;;;;5054892;28;20674;-83
2022/12/08 05:57:34;;;;;;;3.67;3.38;;;;;;;;;;5056543;28;20288;-83
2022/12/08 06:00:01;;;;;;;3.50;3.20;;;;;;;;;;5057136;28;20243;-82
2022/12/08 06:02:29;;;;;;;3.95;3.65;;;;;;;;;;5057464;28;20309;-84
2022/12/08 06:04:56;;;;;;;4.15;3.75;;;;;;;;;;5057398;28;20202;-84
2022/12/08 06:07:24;;;;;;;5.18;3.33;;;;;;;;;;5057307;28;20656;-82
2022/12/08 06:09:51;;;;;;;3.20;2.92;;;;;;;;;;5072262;28;20288;-84
2022/12/08 06:12:20;;;;;;;3.10;2.83;;;;;;;;;;5076614;28;20307;-83
2022/12/08 06:14:48;;;;;;;4.00;3.58;;;;;;;;;;5078246;28;20571;-84
2022/12/08 06:17:15;;;;;;;4.13;3.67;;;;;;;;;;5077986;28;20236;-83
2022/12/08 06:19:43;;;;;;;3.85;3.20;;;;;;;;;;5076922;28;20283;-83
2022/12/08 06:22:10;;;;;;;4.55;3.40;;;;;;;;;;5077648;28;20303;-83
2022/12/08 06:24:38;;;;;;;4.70;4.30;;;;;;;;;;5078304;28;20691;-82
2022/12/08 06:27:05;;;;;;;4.30;3.13;;;;;;;;;;5077858;28;20254;-83
2022/12/08 06:29:34;;;;;;;3.70;3.40;;;;;;;;;;5078213;28;20313;-82
2022/12/08 06:32:02;;;;;;;4.80;3.53;;;;;;;;;;5077713;28;20766;-82
2022/12/08 06:34:29;;;;;;;3.08;2.88;;;;;;;;;;5078380;28;20204;-83
2022/12/08 06:36:57;;;;;;;3.65;3.45;;;;;;;;;;5077369;28;20201;-83
2022/12/08 06:39:24;;;;;;;3.15;2.88;;;;;;;;;;5067283;28;20269;-83
2022/12/08 06:44:38;;;;;;;5.65;5.10;;;;;;;;;;5057569;28;20205;-84
2022/12/08 06:47:09;;;;;;;7.90;5.43;;;;;;;;;;5056256;28;20741;-83
2022/12/08 06:49:36;;;;;;;5.30;4.53;;;;;;;;;;5055843;28;20257;-83
2022/12/08 06:52:04;;;;;;;6.22;4.40;;;;;;;;;;5056595;28;20706;-83
2022/12/08 06:54:32;;;;;;;4.47;4.05;;;;;;;;;;5057468;28;20261;-84
2022/12/08 06:56:59;;;;;;;4.65;4.25;;;;;;;;;;5056001;28;20573;-82
2022/12/08 06:59:27;;;;;;;5.80;5.00;;;;;;;;;;5056904;28;20288;-84
2022/12/08 07:01:56;;;;;;;5.25;4.75;;;;;;;;;;5055902;28;20268;-83
2022/12/08 07:04:23;;;;;;;5.95;5.35;;;;;;;;;;5056754;28;20743;-84
2022/12/08 07:06:51;;;;;;;5.30;4.78;;;;;;;;;;5039575;28;20323;-83
2022/12/08 07:09:18;;;;;;;6.95;5.45;;;;;;;;;;5038338;28;20260;-83
2022/12/08 07:11:46;;;;;;;5.30;4.70;;;;;;;;;;5054187;28;20253;-83
2022/12/08 07:14:13;;;;;;;5.13;4.55;;;;;;;;;;5056597;28;20289;-84
2022/12/08 07:16:41;;;;;;;4.93;4.43;;;;;;;;;;5056917;28;20301;-83
2022/12/08 07:19:11;;;;;;;4.63;4.22;;;;;;;;;;5055387;28;20248;-83
2022/12/08 07:21:38;;;;;;;4.50;4.10;;;;;;;;;;5056267;28;20229;-82
2022/12/08 07:24:07;;;;;;;5.28;4.78;;;;;;;;;;5056499;28;20292;-83
2022/12/08 07:26:34;;;;;;;6.43;4.50;;;;;;;;;;5056114;28;20295;-84
2022/12/08 07:29:02;;;;;;;4.93;4.43;;;;;;;;;;5056370;28;20312;-83
2022/12/08 07:31:29;;;;;;;4.57;4.18;;;;;;;;;;5055609;28;20271;-83
2022/12/08 07:33:57;;;;;;;4.65;4.25;;;;;;;;;;5056597;28;20284;-83
2022/12/08 07:36:27;;;;;;;4.72;4.22;;;;;;;;;;5056131;28;20285;-83
2022/12/08 07:38:55;;;;;;;5.78;5.28;;;;;;;;;;5061408;28;20285;-83
2022/12/08 07:41:25;;;;;;;4.88;4.38;;;;;;;;;;5075208;28;20224;-83
2022/12/08 07:43:53;;;;;;;5.63;4.05;;;;;;;;;;5055152;28;20291;-83
2022/12/08 07:46:23;;;;;;;3.72;3.42;;;;;;;;;;5054911;28;20208;-84
2022/12/08 07:48:51;;;;;;;4.00;3.65;;;;;;;;;;5055197;28;20313;-83
2022/12/08 07:51:19;;;;;;;4.82;4.20;;;;;;;;;;5055958;28;20221;-84
2022/12/08 07:53:50;;;;;;;3.25;2.95;;;;;;;;;;5056250;28;20661;-82
2022/12/08 07:56:18;;;;;;;3.38;3.17;;;;;;;;;;5055652;28;20289;-83
2022/12/08 07:58:46;;;;;;;3.50;3.20;;;;;;;;;;5054997;28;20724;-84
2022/12/08 08:01:25;;;;;;;3.97;3.67;;;;;;;;;;5055045;28;20308;-83
2022/12/08 08:03:53;;;;;;;3.75;3.42;;;;;;;;;;5056032;28;20269;-84
2022/12/08 08:06:21;;;;;;;3.80;3.50;;;;;;;;;;5055311;28;20292;-84
2022/12/08 08:08:49;;;;;;;2.97;2.78;;;;;;;;;;5055054;28;20356;-84
2022/12/08 08:11:17;;;;;;;4.18;3.78;;;;;;;;;;5056088;28;20635;-83
2022/12/08 08:13:44;;;;;;;3.63;3.28;;;;;;;;;;5055444;28;20247;-83
2022/12/08 08:16:12;;;;;;;4.03;3.40;;;;;;;;;;5055573;28;20285;-84
2022/12/08 08:18:40;;;;;;;4.63;4.05;;;;;;;;;;5054928;28;20293;-84
2022/12/08 08:21:08;;;;;;;4.28;3.78;;;;;;;;;;5054549;28;20725;-83
2022/12/08 08:23:36;;;;;;;3.92;3.63;;;;;;;;;;5055931;28;20300;-84
2022/12/08 08:26:05;;;;;;;4.20;3.80;;;;;;;;;;5055864;28;20339;-84
2022/12/08 08:28:34;;;;;;;4.30;3.95;;;;;;;;;;5055524;28;20328;-84
2022/12/08 08:31:02;;;;;;;4.65;4.07;;;;;;;;;;5055806;28;20276;-83
2022/12/08 08:33:30;;;;;;;4.28;3.88;;;;;;;;;;5055467;28;20233;-83
2022/12/08 08:35:57;;;;;;;3.80;3.50;;;;;;;;;;5055616;28;20210;-84
2022/12/08 08:38:25;;;;;;;3.63;3.33;;;;;;;;;;5057052;28;20288;-83
2022/12/08 08:40:52;;;;;;;3.63;3.33;;;;;;;;;;5075617;28;20311;-82
2022/12/08 08:43:30;;;;;;;4.53;3.90;;;;;;;;;;5075473;28;20205;-82
2022/12/08 08:45:59;;;;;;;4.28;3.92;;;;;;;;;;5075949;28;20185;-82
2022/12/08 08:48:27;;;;;;;3.83;3.53;;;;;;;;;;5065975;28;20233;-83
2022/12/08 08:50:55;;;;;;;3.33;3.03;;;;;;;;;;5055114;28;20308;-83
2022/12/08 08:53:23;;;;;;;4.35;3.95;;;;;;;;;;5055556;28;20623;-83
2022/12/08 08:55:51;;;;;;;3.60;3.30;;;;;;;;;;5055406;28;20289;-83
2022/12/08 08:58:20;;;;;;;5.82;4.10;;;;;;;;;;5054977;28;20300;-83
2022/12/08 09:00:47;;;;;;;3.47;3.17;;;;;;;;;;5054616;28;20304;-83
2022/12/08 09:03:15;;;;;;;3.28;2.97;;;;;;;;;;5054799;28;20296;-83
2022/12/08 09:05:42;;;;;;;2.90;2.70;;;;;;;;;;5054472;28;20264;-83
2022/12/08 09:08:10;;;;;;;6.25;4.10;;;;;;;;;;5054440;28;20309;-83
2022/12/08 09:10:37;;;;;;;3.03;2.83;;;;;;;;;;5034752;28;20313;-83
2022/12/08 09:13:04;;;;;;;3.75;3.10;;;;;;;;;;5033959;28;20202;-83
2022/12/08 09:15:33;;;;;;;3.40;3.10;;;;;;;;;;5034913;28;20202;-83
2022/12/08 09:18:01;;;;;;;3.17;2.97;;;;;;;;;;5040029;28;20300;-84
2022/12/08 09:20:28;;;;;;;3.70;3.40;;;;;;;;;;5082180;22;20296;-85
2022/12/08 09:22:56;;;;;;;4.13;3.38;;;;;;;;;;5093943;28;20295;-83
2022/12/08 09:25:23;;;;;;;3.25;2.95;;;;;;;;;;5094912;28;20283;-83
2022/12/08 09:27:51;;;;;;;3.60;3.30;;;;;;;;;;5094280;28;20211;-83
2022/12/08 09:30:19;;;;;;;3.60;3.30;;;;;;;;;;5094083;28;20231;-83
2022/12/08 09:32:47;;;;;;;7.82;3.35;;;;;;;;;;5100245;28;20676;-82
2022/12/08 09:35:15;;;;;;;2.72;2.53;;;;;;;;;;5101677;28;20242;-85
2022/12/08 09:37:43;;;;;;;3.22;2.92;;;;;;;;;;5101656;28;20205;-83
2022/12/08 09:40:14;;;;;;;3.47;3.17;;;;;;;;;;5102178;28;20292;-85
2022/12/08 09:42:47;;;;;;;3.88;3.58;;;;;;;;;;5090705;28;20645;-85
2022/12/08 09:45:17;;;;;;;2.80;2.58;;;;;;;;;;5081637;28;20276;-84
2022/12/08 09:47:48;;;;;;;2.90;2.65;;;;;;;;;;5081652;28;20284;-86
2022/12/08 09:50:22;;;;;;;2.75;2.47;;;;;;;;;;5080813;28;20196;-86
2022/12/08 09:53:00;;;;;;;2.67;2.42;;;;;;;;;;5080866;28;20229;-86
2022/12/08 09:55:40;;;;;;;3.70;3.40;;;;;;;;;;5080201;28;20192;-84
2022/12/08 09:58:19;;;;;;;2.90;2.70;;;;;;;;;;5080244;28;20238;-83
2022/12/08 10:00:47;;;;;;;3.60;3.10;;;;;;;;;;5080588;28;20307;-82
2022/12/08 10:03:17;;;;;;;3.13;2.92;;;;;;;;;;5078884;28;20287;-84
2022/12/08 10:05:49;;;;;;;4.10;3.30;;;;;;;;;;5080434;28;20192;-84
2022/12/08 10:08:22;;;;;;;3.83;3.53;;;;;;;;;;5079642;28;20265;-84
2022/12/08 10:10:57;;;;;;;3.15;2.85;;;;;;;;;;5079744;28;20232;-86
2022/12/08 10:13:33;;;;;;;2.67;2.47;;;;;;;;;;5081353;28;20249;-84
2022/12/08 10:16:12;;;;;;;3.35;2.72;;;;;;;;;;5080928;28;20219;-84
2022/12/08 10:18:42;;;;;;;2.67;2.47;;;;;;;;;;5080807;28;20649;-84
2022/12/08 10:21:17;;;;;;;2.42;2.22;;;;;;;;;;5080672;28;20224;-84
2022/12/08 10:23:49;;;;;;;3.10;2.80;;;;;;;;;;5080821;28;20177;-86
2022/12/08 10:26:19;;;;;;;3.35;3.05;;;;;;;;;;5080974;28;20213;-85
2022/12/08 10:28:47;;;;;;;3.63;3.30;;;;;;;;;;5081421;28;20201;-84
2022/12/08 10:31:17;;;;;;;2.53;2.33;;;;;;;;;;5080350;28;20248;-84
2022/12/08 10:33:48;;;;;;;2.30;2.10;;;;;;;;;;5080725;28;20228;-83
2022/12/08 10:36:15;;;;;;;4.85;2.78;;;;;;;;;;5080242;28;20220;-83
2022/12/08 10:38:43;;;;;;;2.10;2.00;;;;;;;;;;5079887;28;20253;-82
2022/12/08 10:41:16;;;;;;;2.15;2.05;;;;;;;;;;5079382;28;20217;-85
2022/12/08 10:43:47;;;;;;;3.90;2.85;;;;;;;;;;5079253;28;20216;-86
2022/12/08 10:46:18;;;;;;;2.28;2.17;;;;;;;;;;5080288;28;20614;-86
2022/12/08 10:48:53;;;;;;;2.55;2.30;;;;;;;;;;5080253;28;20657;-87
2022/12/08 10:51:29;;;;;;;2.38;2.17;;;;;;;;;;5080549;28;20256;-86
2022/12/08 10:53:57;;;;;;;2.50;2.30;;;;;;;;;;5079845;28;20259;-84
2022/12/08 10:56:28;;;;;;;2.10;1.90;;;;;;;;;;5079060;28;20201;-84
2022/12/08 10:59:13;;;;;;;2.13;1.95;;;;;;;;;;5080242;28;20185;-85
2022/12/08 11:01:45;;;;;;;2.15;1.95;;;;;;;;;;5083196;28;20231;-86
2022/12/08 11:04:17;;;;;;;2.40;2.20;;;;;;;;;;5083964;28;20211;-89
2022/12/08 11:06:46;;;;;;;2.53;2.33;;;;;;;;;;5083211;28;20264;-86
2022/12/08 11:09:37;;;;;;;1.42;1.38;;;;;;;;;;5092822;28;20652;-87
2022/12/08 11:12:09;;;;;;;2.15;1.95;;;;;;;;;;5103573;28;20256;-88
2022/12/08 11:14:49;;;;;;;1.77;1.67;;;;;;;;;;5104565;28;20283;-88
2022/12/08 11:17:23;;;;;;;2.38;2.10;;;;;;;;;;5104007;28;20204;-88
2022/12/08 11:19:59;;;;;;;1.83;1.70;;;;;;;;;;5084320;28;20624;-87
2022/12/08 11:22:31;;;;;;;2.05;1.85;;;;;;;;;;5083586;28;20233;-85
2022/12/08 11:25:10;;;;;;;1.85;1.75;;;;;;;;;;5084159;28;20271;-85
2022/12/08 11:27:40;;;;;;;2.47;1.77;;;;;;;;;;5087518;28;20288;-89
2022/12/08 11:30:16;;;;;;;1.63;1.52;;;;;;;;;;5103289;28;20219;-89
2022/12/08 11:32:45;;;;;;;2.30;2.10;;;;;;;;;;5103305;28;20310;-88
2022/12/08 11:35:23;;;;;;;2.38;2.08;;;;;;;;;;5104310;28;20204;-88
2022/12/08 11:37:51;;;;;;;1.80;1.70;;;;;;;;;;5101660;28;20286;-88
2022/12/08 11:40:24;;;;;;;1.52;1.42;;;;;;;;;;5085239;28;20220;-87
2022/12/08 11:42:58;;;;;;;1.40;1.30;;;;;;;;;;5093917;28;20199;-87
2022/12/08 11:45:30;;;;;;;1.20;1.20;;;;;;;;;;5098969;28;20567;-87
2022/12/08 11:48:06;;;;;;;2.45;2.25;;;;;;;;;;5098753;28;20208;-85
2022/12/08 11:50:43;;;;;;;1.60;1.50;;;;;;;;;;5099023;28;20263;-84
2022/12/08 11:53:21;;;;;;;1.50;1.40;;;;;;;;;;5100405;28;20212;-83
2022/12/08 11:55:53;;;;;;;1.50;1.40;;;;;;;;;;5099288;28;20200;-83
2022/12/08 11:58:26;;;;;;;1.13;1.13;;;;;;;;;;5099147;28;20241;-83
2022/12/08 12:00:54;;;;;;;1.15;1.15;;;;;;;;;;5100163;28;20276;-83
2022/12/08 12:03:28;;;;;;;1.02;1.02;;;;;;;;;;5095758;28;20207;-83
2022/12/08 12:06:36;;;;;;;1.20;1.20;;;;;;;;;;5098663;28;20208;-83
2022/12/08 12:09:11;;;;;;;0.90;0.90;;;;;;;;;;5098680;28;20223;-83
2022/12/08 12:15:02;;;;;;;1.00;1.00;;;;;;;;;;5097747;28;20207;-82
2022/12/08 12:17:42;;;;;;;1.58;1.48;;;;;;;;;;5098913;28;20728;-82
2022/12/08 12:20:18;;;;;;;1.17;1.17;;;;;;;;;;5099164;28;20184;-82
2022/12/08 12:22:50;;;;;;;1.20;1.10;;;;;;;;;;5099602;28;20304;-82
2022/12/08 12:25:21;;;;;;;1.15;1.15;;;;;;;;;;5099244;28;20277;-83
2022/12/08 12:27:49;;;;;;;1.00;1.00;;;;;;;;;;5098473;28;20209;-82
2022/12/08 12:30:23;;;;;;;0.88;0.88;;;;;;;;;;5097518;28;20200;-82
2022/12/08 12:32:55;;;;;;;0.90;0.90;;;;;;;;;;5098653;28;20350;-83
2022/12/08 12:35:31;;;;;;;1.40;1.00;;;;;;;;;;5099481;28;20439;-83
2022/12/08 12:38:59;;;;;;;0.88;0.88;;;;;;;;;;5099439;28;20199;-83
2022/12/08 12:40:52;;;;;;;0.80;0.80;;;;;;;;;;5078607;28;20666;-82
2022/12/08 12:43:31;;;;;;;0.73;0.73;;;;;;;;;;5078683;28;20220;-83
2022/12/08 12:46:41;;;;;;;1.05;1.05;;;;;;;;;;5078811;28;20690;-82
2022/12/08 12:50:06;;;;;;;0.88;0.85;;;;;;;;;;5075408;28;20208;-83
2022/12/08 12:52:49;;;;;;;1.00;1.00;;;;;;;;;;5069835;28;20228;-82
2022/12/08 12:55:50;;;;;;;0.70;0.70;;;;;;;;;;5078469;28;20283;-83
2022/12/08 12:58:41;;;;;;;1.05;1.00;;;;;;;;;;5077795;28;20200;-82
2022/12/08 13:01:42;;;;;;;0.90;0.90;;;;;;;;;;5078342;28;20223;-82
2022/12/08 13:04:11;;;;;;;0.80;0.80;;;;;;;;;;5078586;28;20731;-82
2022/12/08 13:06:42;;;;;;;0.85;0.85;;;;;;;;;;5098726;28;20200;-82
2022/12/08 13:09:22;;;;;;;1.05;0.95;;;;;;;;;;5095100;28;20438;-83
2022/12/08 13:11:53;;;;;;;0.70;0.70;;;;;;;;;;5102138;28;20331;-82
2022/12/08 13:14:33;;;;;;;0.80;0.80;;;;;;;;;;5101938;28;20263;-83
2022/12/08 13:17:04;;;;;;;0.98;0.98;;;;;;;;;;5101482;28;20202;-83
2022/12/08 13:19:33;;;;;;;0.80;0.80;;;;;;;;;;5083829;28;20209;-83
2022/12/08 13:22:01;;;;;;;0.98;0.95;;;;;;;;;;5080624;28;20225;-82
2022/12/08 13:24:34;;;;;;;0.77;0.77;;;;;;;;;;5079971;28;20232;-82
2022/12/08 13:27:34;;;;;;;0.88;0.88;;;;;;;;;;5079703;28;20181;-83
2022/12/08 13:30:42;;;;;;;1.00;0.98;;;;;;;;;;5079166;28;20670;-83
2022/12/08 13:33:15;;;;;;;1.33;1.23;;;;;;;;;;5078693;28;21023;-84
2022/12/08 13:35:52;;;;;;;0.90;0.90;;;;;;;;;;5078000;28;20206;-84
2022/12/08 13:38:22;;;;;;;0.68;0.68;;;;;;;;;;5081123;28;20292;-84
2022/12/08 13:40:50;;;;;;;0.80;0.80;;;;;;;;;;5100100;28;20258;-84
2022/12/08 13:43:23;;;;;;;1.10;1.00;;;;;;;;;;5084259;28;20217;-83
2022/12/08 13:45:51;;;;;;;1.20;1.05;;;;;;;;;;5080029;28;20247;-83
2022/12/08 13:48:25;;;;;;;0.93;0.93;;;;;;;;;;5087667;28;20576;-82
2022/12/08 13:50:55;;;;;;;1.08;0.98;;;;;;;;;;5100094;28;20246;-84
2022/12/08 13:53:25;;;;;;;0.80;0.80;;;;;;;;;;5099404;28;20310;-83
2022/12/08 13:55:56;;;;;;;0.82;0.82;;;;;;;;;;5099039;28;20207;-83
2022/12/08 13:58:28;;;;;;;1.52;1.08;;;;;;;;;;5099636;28;20673;-83
2022/12/08 14:01:05;;;;;;;1.02;1.02;;;;;;;;;;5099981;28;20255;-83
2022/12/08 14:03:38;;;;;;;1.02;0.82;;;;;;;;;;5100090;28;20287;-83
2022/12/08 14:06:06;;;;;;;1.02;1.02;;;;;;;;;;5100822;28;20238;-83
2022/12/08 14:08:35;;;;;;;0.80;0.80;;;;;;;;;;5099673;28;20292;-83
2022/12/08 14:11:06;;;;;;;1.02;1.02;;;;;;;;;;5100282;28;20648;-84
2022/12/08 14:13:35;;;;;;;1.23;1.20;;;;;;;;;;5099288;28;20311;-83
2022/12/08 14:16:03;;;;;;;1.42;0.93;;;;;;;;;;5099930;28;20224;-84
2022/12/08 14:18:32;;;;;;;0.98;0.88;;;;;;;;;;5088375;28;20208;-84
2022/12/08 14:21:05;;;;;;;6.60;4.18;;;;;;;;;;5079035;28;20319;-84
2022/12/08 14:23:35;;;;;;;26.65;12.27;;;;;;;;;;5079189;28;20240;-84
2022/12/08 14:26:04;;;;;;;23.77;12.70;;;;;;;;;;5079456;28;20680;-84
2022/12/08 14:28:34;;;;;;;7.15;3.90;;;;;;;;;;5078950;28;20754;-83
2022/12/08 14:31:01;;;;;;;9.55;6.45;;;;;;;;;;5079684;28;20733;-83
2022/12/08 14:33:29;;;;;;;6.40;3.65;;;;;;;;;;5078841;28;20260;-84
2022/12/08 14:35:57;;;;;;;24.30;13.50;;;;;;;;;;5079470;28;20296;-83
2022/12/08 14:38:26;;;;;;;24.00;13.80;;;;;;;;;;5079207;28;20247;-82
2022/12/08 14:41:04;;;;;;;18.77;11.35;;;;;;;;;;5079310;28;20284;-84
2022/12/08 14:43:33;;;;;;;7.30;5.40;;;;;;;;;;5079312;28;20670;-84
2022/12/08 14:46:05;;;;;;;3.08;2.28;;;;;;;;;;5078939;28;20638;-83
2022/12/08 14:48:44;;;;;;;3.53;2.22;;;;;;;;;;5088857;28;20227;-84
2022/12/08 14:51:21;;;;;;;2.85;2.28;;;;;;;;;;5099687;28;20247;-83
2022/12/08 14:53:54;;;;;;;2.25;2.08;;;;;;;;;;5099284;28;20739;-83
2022/12/08 14:56:26;;;;;;;3.05;2.75;;;;;;;;;;5099274;28;20201;-84
2022/12/08 14:59:07;;;;;;;6.70;5.30;;;;;;;;;;5099694;28;20195;-84
2022/12/08 15:01:35;;;;;;;13.77;8.15;;;;;;;;;;5099884;28;20224;-83
2022/12/08 15:04:09;;;;;;;24.67;11.63;;;;;;;;;;5099439;28;20200;-83
2022/12/08 15:06:37;;;;;;;7.32;5.30;;;;;;;;;;5099824;28;20272;-83
2022/12/08 15:09:17;;;;;;;11.98;8.70;;;;;;;;;;5099234;28;20254;-84
2022/12/08 15:11:45;;;;;;;5.90;5.35;;;;;;;;;;5099539;28;20223;-84
2022/12/08 15:14:33;;;;;;;9.52;8.10;;;;;;;;;;5099257;28;20255;-83
2022/12/08 15:17:01;;;;;;;13.43;12.10;;;;;;;;;;5099964;28;20267;-83
2022/12/08 15:19:31;;;;;;;8.25;6.28;;;;;;;;;;5100040;28;20208;-82